Time;durP1;ratioP1;P1;durP2;ratioP2;P2;SDS_P1;SDS_P2;PMS_P1;PMS_P2;Temp;Humidity;BMP_temperature;BMP_pressure;BME280_temperature;BME280_humidity;BME280_pressure;Samples;Min_cycle;Max_cycle;Signal;HPM_P1;HPM_P2
2023/03/16 18:46:50;;;;;;;23.20;21.73;;;24.60;44.20;;;;;;5130391;27;20562;-46
2023/03/16 18:49:21;;;;;;;20.00;19.37;;;24.50;44.90;;;;;;5117348;28;20474;-48
2023/03/16 18:51:50;;;;;;;14.80;14.20;;;24.30;43.80;;;;;;5126044;28;20439;-50
2023/03/16 18:54:21;;;;;;;20.13;19.53;;;24.40;44.70;;;;;;5129174;28;20221;-50
2023/03/16 18:56:48;;;;;;;19.43;18.83;;;24.60;44.70;;;;;;5111703;28;20878;-51
2023/03/16 18:59:15;;;;;;;18.13;17.63;;;24.70;44.60;;;;;;5112617;28;20537;-48
2023/03/16 19:01:44;;;;;;;19.57;18.87;;;24.80;44.80;;;;;;5130033;28;20500;-48
2023/03/16 19:04:20;;;;;;;17.23;16.73;;;24.80;44.60;;;;;;5135234;28;20472;-48
2023/03/16 19:06:48;;;;;;;17.33;16.83;;;24.80;44.20;;;;;;5133607;27;20540;-54
2023/03/16 19:09:18;;;;;;;17.57;17.07;;;24.90;44.50;;;;;;5122857;28;20798;-51
2023/03/16 19:11:46;;;;;;;17.70;17.10;;;24.90;44.40;;;;;;5113146;28;20553;-52
2023/03/16 19:14:16;;;;;;;19.37;18.77;;;24.90;44.20;;;;;;5113771;28;20446;-48
2023/03/16 19:16:43;;;;;;;18.00;17.40;;;24.90;44.10;;;;;;5116202;28;20449;-53
2023/03/16 19:19:12;;;;;;;19.20;18.60;;;24.90;44.10;;;;;;5111333;28;20499;-50
2023/03/16 19:21:41;;;;;;;18.53;17.73;;;24.90;44.10;;;;;;5111368;28;20881;-48
2023/03/16 19:24:20;;;;;;;7.47;7.30;;;24.90;44.00;;;;;;5112602;28;20951;-56
2023/03/16 19:26:47;;;;;;;7.73;7.53;;;24.90;44.20;;;;;;5114917;28;20315;-52
2023/03/16 19:29:15;;;;;;;7.90;7.70;;;24.90;44.00;;;;;;5114214;28;20461;-55
2023/03/16 19:31:42;;;;;;;7.70;7.50;;;25.00;44.00;;;;;;5113990;28;20472;-53
2023/03/16 19:34:14;;;;;;;7.87;7.67;;;25.00;44.00;;;;;;5114039;28;20484;-54
2023/03/16 19:36:43;;;;;;;7.67;7.47;;;25.00;44.00;;;;;;5114222;28;20483;-55
2023/03/16 19:39:12;;;;;;;8.40;8.20;;;25.00;43.80;;;;;;5114391;28;20465;-56
2023/03/16 19:41:40;;;;;;;7.70;7.50;;;25.00;43.70;;;;;;5114126;28;20469;-54
2023/03/16 19:44:13;;;;;;;8.37;8.07;;;25.10;43.70;;;;;;5113239;28;20445;-59
2023/03/16 19:46:41;;;;;;;6.38;6.18;;;25.10;43.50;;;;;;5111837;28;20447;-57
2023/03/16 19:49:15;;;;;;;7.60;7.40;;;25.00;43.50;;;;;;5111869;28;20208;-55
2023/03/16 19:51:43;;;;;;;8.20;8.00;;;25.10;43.50;;;;;;5112926;28;20481;-58
2023/03/16 19:54:19;;;;;;;9.17;8.67;;;25.20;43.00;;;;;;5111824;28;20474;-54
2023/03/16 19:56:46;;;;;;;8.07;7.67;;;25.10;43.00;;;;;;5104903;28;20474;-55
2023/03/16 19:59:14;;;;;;;7.63;7.53;;;25.20;43.10;;;;;;5102390;28;20474;-61
2023/03/16 20:01:41;;;;;;;7.60;7.40;;;25.20;43.20;;;;;;5095932;28;20458;-55
2023/03/16 20:04:15;;;;;;;8.33;7.97;;;25.20;43.10;;;;;;5096956;28;20509;-60
2023/03/16 20:06:44;;;;;;;7.80;7.60;;;25.20;43.00;;;;;;5098693;28;20937;-55
2023/03/16 20:09:11;;;;;;;8.40;8.10;;;25.20;43.00;;;;;;5099591;28;20939;-59
2023/03/16 20:11:38;;;;;;;8.53;8.33;;;25.20;43.50;;;;;;5097582;28;20497;-58
2023/03/16 20:14:06;;;;;;;9.00;8.60;;;25.20;43.30;;;;;;5099115;28;20932;-58
2023/03/16 20:16:34;;;;;;;8.70;8.40;;;25.20;43.40;;;;;;5099720;28;20443;-57
2023/03/16 20:19:04;;;;;;;7.93;7.73;;;25.20;43.20;;;;;;5097552;28;20446;-57
2023/03/16 20:21:31;;;;;;;8.77;8.50;;;25.20;43.10;;;;;;5098779;28;20455;-58
2023/03/16 20:24:00;;;;;;;7.93;7.53;;;25.20;42.90;;;;;;5100393;28;20450;-59
2023/03/16 20:26:31;;;;;;;7.57;7.37;;;25.20;43.00;;;;;;5098338;28;20474;-58
2023/03/16 20:28:59;;;;;;;8.30;8.10;;;25.20;42.90;;;;;;5096513;28;20442;-61
2023/03/16 20:31:28;;;;;;;8.37;8.17;;;25.20;42.90;;;;;;5097037;28;20458;-56
2023/03/16 20:33:55;;;;;;;8.03;7.83;;;25.20;43.10;;;;;;5098227;28;21061;-61
2023/03/16 20:36:22;;;;;;;6.53;6.43;;;25.20;43.00;;;;;;5108224;28;20492;-59
2023/03/16 20:38:50;;;;;;;8.00;7.80;;;25.10;42.60;;;;;;5101172;28;20620;-60
2023/03/16 20:41:24;;;;;;;7.80;7.60;;;25.10;43.20;;;;;;5099152;28;20485;-60
2023/03/16 20:43:52;;;;;;;8.80;8.60;;;25.20;43.30;;;;;;5105374;28;20500;-59
2023/03/16 20:46:24;;;;;;;8.60;8.30;;;25.30;43.30;;;;;;5103505;28;20509;-57
2023/03/16 20:48:52;;;;;;;9.13;8.83;;;25.30;43.30;;;;;;5106774;28;20450;-53
2023/03/16 20:51:20;;;;;;;9.13;8.83;;;25.40;43.30;;;;;;5099143;28;20493;-62
2023/03/16 20:53:48;;;;;;;9.60;9.40;;;25.40;43.20;;;;;;5099417;28;20443;-59
2023/03/16 20:56:19;;;;;;;9.15;8.85;;;25.40;43.20;;;;;;5104098;28;20470;-52
2023/03/16 20:58:48;;;;;;;10.20;9.90;;;25.40;43.10;;;;;;5117759;28;20286;-52
2023/03/16 21:01:19;;;;;;;10.40;9.87;;;25.20;42.30;;;;;;5107936;28;20525;-56
2023/03/16 21:03:49;;;;;;;8.87;8.67;;;24.90;42.30;;;;;;5104935;28;20508;-53
2023/03/16 21:06:22;;;;;;;9.17;8.97;;;24.60;42.50;;;;;;5107770;28;20546;-52
2023/03/16 21:08:51;;;;;;;9.27;9.07;;;24.40;42.70;;;;;;5103818;28;20468;-54
2023/03/16 21:11:23;;;;;;;9.60;9.40;;;24.30;43.00;;;;;;5102788;28;20449;-52
2023/03/16 21:13:50;;;;;;;9.83;9.53;;;24.20;43.20;;;;;;5102392;28;20466;-54
2023/03/16 21:16:18;;;;;;;8.90;8.70;;;24.10;43.40;;;;;;5112597;28;20888;-54
2023/03/16 21:18:45;;;;;;;8.83;8.63;;;23.90;43.40;;;;;;5101341;28;20510;-54
2023/03/16 21:21:14;;;;;;;8.60;8.30;;;23.80;43.50;;;;;;5113097;28;20478;-53
2023/03/16 21:23:41;;;;;;;8.60;8.40;;;23.70;43.70;;;;;;5103278;28;20445;-56
2023/03/16 21:26:14;;;;;;;8.70;8.50;;;23.70;43.80;;;;;;5104535;28;20510;-54
2023/03/16 21:28:44;;;;;;;9.30;9.10;;;23.60;43.90;;;;;;5114260;28;20469;-52
2023/03/16 21:31:17;;;;;;;8.50;8.30;;;23.50;43.90;;;;;;5100101;28;20812;-52
2023/03/16 21:33:44;;;;;;;8.90;8.60;;;23.50;44.10;;;;;;5115058;28;20448;-55
2023/03/16 21:36:15;;;;;;;8.50;8.30;;;23.40;44.10;;;;;;5109184;28;20445;-54
2023/03/16 21:38:42;;;;;;;8.67;8.47;;;23.40;44.20;;;;;;5106428;28;20540;-53
2023/03/16 21:41:10;;;;;;;9.10;8.90;;;23.30;44.20;;;;;;5106518;28;20450;-53
2023/03/16 21:43:37;;;;;;;8.40;8.20;;;23.20;44.30;;;;;;5102079;28;20469;-54
2023/03/16 21:46:06;;;;;;;8.30;8.10;;;23.20;44.40;;;;;;5096971;28;20501;-56
2023/03/16 21:48:37;;;;;;;8.60;8.40;;;23.10;44.40;;;;;;5097658;28;21072;-55
2023/03/16 21:51:12;;;;;;;8.30;8.10;;;23.10;44.50;;;;;;5106014;28;20446;-58
2023/03/16 21:53:40;;;;;;;8.23;8.03;;;23.00;44.50;;;;;;5110096;28;20528;-54
2023/03/16 21:56:12;;;;;;;8.10;7.80;;;23.00;44.60;;;;;;5116981;28;20473;-51
2023/03/16 21:58:39;;;;;;;7.93;7.83;;;22.90;44.60;;;;;;5107441;28;20497;-55
2023/03/16 22:01:11;;;;;;;8.40;8.20;;;22.90;44.80;;;;;;5097254;28;20451;-52
2023/03/16 22:03:39;;;;;;;8.00;7.80;;;22.80;44.70;;;;;;5115078;28;21046;-52
2023/03/16 22:06:09;;;;;;;7.43;7.33;;;22.80;44.80;;;;;;5098133;28;20513;-52
2023/03/16 22:08:37;;;;;;;8.10;7.80;;;22.70;44.90;;;;;;5096382;28;20484;-55
2023/03/16 22:11:09;;;;;;;7.73;7.53;;;22.70;44.90;;;;;;5096817;28;20443;-52
2023/03/16 22:13:35;;;;;;;7.17;6.97;;;22.70;45.00;;;;;;5097036;28;20501;-53
2023/03/16 22:16:09;;;;;;;7.67;7.47;;;22.60;45.00;;;;;;5096967;28;20487;-53
2023/03/16 22:18:37;;;;;;;7.43;7.27;;;22.60;45.10;;;;;;5096725;28;20485;-52
2023/03/16 22:21:25;;;;;;;7.27;7.07;;;22.50;45.10;;;;;;5096094;28;20873;-51
2023/03/16 22:23:52;;;;;;;7.10;6.90;;;22.50;45.30;;;;;;5096789;28;20439;-55
2023/03/16 22:26:22;;;;;;;7.97;7.77;;;22.40;45.20;;;;;;5096601;28;20505;-51
2023/03/16 22:28:50;;;;;;;7.37;7.17;;;22.40;45.30;;;;;;5096607;28;20443;-54
2023/03/16 22:31:19;;;;;;;8.00;7.50;;;22.30;45.30;;;;;;5096520;28;20866;-56
2023/03/16 22:33:49;;;;;;;7.80;7.60;;;22.30;45.40;;;;;;5096164;28;20474;-54
2023/03/16 22:36:18;;;;;;;7.33;7.13;;;22.30;45.50;;;;;;5096399;28;20438;-54
2023/03/16 22:38:45;;;;;;;7.93;7.73;;;22.20;45.50;;;;;;5095855;28;20478;-51
2023/03/16 22:41:16;;;;;;;7.80;7.60;;;22.20;45.50;;;;;;5096778;28;20470;-52
2023/03/16 22:43:44;;;;;;;7.67;7.47;;;22.20;45.60;;;;;;5096697;28;20468;-51
2023/03/16 22:46:18;;;;;;;6.97;6.83;;;22.10;45.60;;;;;;5095974;28;20940;-55
2023/03/16 22:48:45;;;;;;;7.63;7.43;;;22.10;45.60;;;;;;5096750;28;20449;-51
2023/03/16 22:51:22;;;;;;;7.67;7.47;;;22.00;45.60;;;;;;5096876;28;20943;-52
2023/03/16 22:53:52;;;;;;;7.80;7.60;;;22.00;45.70;;;;;;5095349;28;20476;-51
2023/03/16 22:56:20;;;;;;;7.33;7.13;;;22.00;45.80;;;;;;5096417;28;20464;-50
2023/03/16 22:58:51;;;;;;;7.60;7.40;;;22.00;45.80;;;;;;5096234;28;20446;-51
2023/03/16 23:01:19;;;;;;;7.33;7.20;;;22.00;45.90;;;;;;5096348;28;20481;-55
2023/03/16 23:03:48;;;;;;;7.50;7.33;;;21.90;45.80;;;;;;5096570;28;20958;-54
2023/03/16 23:06:20;;;;;;;7.23;7.13;;;21.90;45.90;;;;;;5097175;28;20482;-51
2023/03/16 23:08:47;;;;;;;6.60;6.50;;;21.80;45.90;;;;;;5096435;28;20446;-51
2023/03/16 23:11:19;;;;;;;7.57;7.37;;;21.80;45.90;;;;;;5099760;28;21001;-55
2023/03/16 23:13:46;;;;;;;7.23;7.13;;;21.80;45.90;;;;;;5104252;28;20466;-50
2023/03/16 23:16:19;;;;;;;6.93;6.80;;;21.80;46.00;;;;;;5106138;28;20520;-51
2023/03/16 23:18:47;;;;;;;6.83;6.70;;;21.80;46.00;;;;;;5108130;28;20515;-51
2023/03/16 23:21:15;;;;;;;6.50;6.40;;;21.80;46.10;;;;;;5097525;28;20486;-51
2023/03/16 23:23:44;;;;;;;6.60;6.50;;;21.70;46.10;;;;;;5105053;28;20473;-52
2023/03/16 23:26:16;;;;;;;7.37;7.17;;;21.70;46.10;;;;;;5102251;28;20552;-56
2023/03/16 23:28:43;;;;;;;6.60;6.50;;;21.70;46.20;;;;;;5102426;28;20445;-57
2023/03/16 23:31:11;;;;;;;7.10;6.97;;;21.70;46.20;;;;;;5113592;28;20469;-52
2023/03/16 23:33:38;;;;;;;6.80;6.60;;;21.60;46.10;;;;;;5110481;28;20494;-51
2023/03/16 23:36:12;;;;;;;6.40;6.30;;;21.60;46.20;;;;;;5120536;28;20441;-53
2023/03/16 23:38:39;;;;;;;6.97;6.87;;;21.60;46.20;;;;;;5109750;28;20466;-55
2023/03/16 23:41:08;;;;;;;6.80;6.70;;;21.60;46.20;;;;;;5112906;28;20518;-55
2023/03/16 23:43:36;;;;;;;7.40;7.30;;;21.60;46.30;;;;;;5110090;28;20485;-54
2023/03/16 23:46:03;;;;;;;6.70;6.60;;;21.50;46.20;;;;;;5120747;28;20859;-54
2023/03/16 23:48:31;;;;;;;6.60;6.50;;;21.50;46.30;;;;;;5111009;28;20480;-52
2023/03/16 23:51:01;;;;;;;6.47;6.37;;;21.50;46.30;;;;;;5099894;28;20866;-50
2023/03/16 23:53:28;;;;;;;6.70;6.60;;;21.50;46.30;;;;;;5108613;28;20461;-54
2023/03/16 23:55:55;;;;;;;6.90;6.80;;;21.50;46.30;;;;;;5116982;28;20461;-57
2023/03/16 23:58:24;;;;;;;6.97;6.77;;;21.50;46.60;;;;;;5106367;28;20461;-53
